Time;durP1;ratioP1;P1;durP2;ratioP2;P2;SDS_P1;SDS_P2;PMS_P1;PMS_P2;Temp;Humidity;BMP_temperature;BMP_pressure;BME280_temperature;BME280_humidity;BME280_pressure;Samples;Min_cycle;Max_cycle;Signal;HPM_P1;HPM_P2
2021/03/20 00:01:43;;;;;;;7.65;3.95;;;2.40;99.90;;;;;;5133174;27;20050;-55
2021/03/20 00:04:09;;;;;;;11.65;5.05;;;2.40;99.90;;;;;;5132794;27;20051;-55
2021/03/20 00:06:40;;;;;;;7.43;5.20;;;2.40;99.90;;;;;;5132854;27;20039;-55
2021/03/20 00:09:09;;;;;;;11.73;5.20;;;2.30;99.90;;;;;;5132989;28;20046;-55
2021/03/20 00:11:36;;;;;;;8.00;4.38;;;2.30;99.90;;;;;;5132827;28;20050;-55
2021/03/20 00:14:03;;;;;;;8.82;5.28;;;2.40;99.90;;;;;;5132923;28;20107;-52
2021/03/20 00:16:28;;;;;;;9.45;4.82;;;2.40;99.90;;;;;;5132780;28;20035;-55
2021/03/20 00:18:54;;;;;;;9.20;5.10;;;2.40;99.90;;;;;;5132821;28;20039;-51
2021/03/20 00:21:20;;;;;;;8.40;4.47;;;2.40;99.90;;;;;;5132786;28;20126;-55
2021/03/20 00:23:47;;;;;;;7.68;4.93;;;2.40;99.90;;;;;;5132952;28;20051;-55
2021/03/20 00:26:13;;;;;;;7.10;5.53;;;2.30;99.90;;;;;;5133031;28;20422;-55
2021/03/20 00:28:39;;;;;;;11.05;5.15;;;2.30;99.90;;;;;;5132736;28;20050;-55
2021/03/20 00:31:09;;;;;;;9.10;5.78;;;2.30;99.90;;;;;;5132437;28;20039;-55
2021/03/20 00:33:36;;;;;;;12.13;5.60;;;2.30;99.90;;;;;;5132837;28;20043;-53
2021/03/20 00:36:03;;;;;;;10.85;5.65;;;2.30;99.90;;;;;;5132858;28;20453;-53
2021/03/20 00:38:29;;;;;;;13.55;5.75;;;2.40;99.90;;;;;;5133843;27;20536;-55
2021/03/20 00:40:56;;;;;;;9.80;5.20;;;2.30;99.90;;;;;;5136856;27;20047;-55
2021/03/20 00:43:23;;;;;;;7.88;4.50;;;2.30;99.90;;;;;;5136791;27;20046;-56
2021/03/20 00:45:50;;;;;;;9.88;4.85;;;2.30;99.90;;;;;;5137102;27;20050;-55
2021/03/20 00:48:19;;;;;;;7.63;4.20;;;2.20;99.90;;;;;;5136845;27;20479;-55
2021/03/20 00:50:45;;;;;;;8.18;4.38;;;2.20;99.90;;;;;;5136684;27;20086;-54
2021/03/20 00:53:11;;;;;;;6.10;4.18;;;2.20;99.90;;;;;;5118365;27;20047;-52
2021/03/20 00:55:37;;;;;;;6.57;4.30;;;2.20;99.90;;;;;;5136763;27;20489;-55
2021/03/20 00:58:23;;;;;;;7.10;4.05;;;2.30;99.90;;;;;;5136467;27;20051;-55
2021/03/20 01:00:51;;;;;;;9.40;4.25;;;2.20;99.90;;;;;;5136113;27;20039;-55
2021/03/20 01:03:17;;;;;;;7.50;4.95;;;2.10;99.90;;;;;;5136078;27;20065;-55
2021/03/20 01:05:43;;;;;;;8.55;4.13;;;2.10;99.90;;;;;;5136090;27;20043;-54
2021/03/20 01:08:09;;;;;;;7.00;4.35;;;2.10;99.90;;;;;;5136087;27;20039;-55
2021/03/20 01:10:36;;;;;;;9.77;5.25;;;2.00;99.90;;;;;;5136033;27;20035;-54
2021/03/20 01:13:02;;;;;;;6.30;4.47;;;2.00;99.90;;;;;;5135897;27;20156;-54
2021/03/20 01:15:28;;;;;;;8.88;4.45;;;1.80;99.90;;;;;;5135946;27;20532;-54
2021/03/20 01:17:53;;;;;;;8.75;4.95;;;1.80;99.90;;;;;;5136116;27;20035;-55
2021/03/20 01:20:19;;;;;;;7.03;5.18;;;1.80;99.90;;;;;;5135897;27;20508;-55
2021/03/20 01:22:45;;;;;;;8.15;4.60;;;1.70;99.90;;;;;;5135738;27;20079;-56
2021/03/20 01:25:11;;;;;;;6.55;4.32;;;1.80;99.90;;;;;;5136041;27;20047;-55
2021/03/20 01:27:37;;;;;;;6.78;3.97;;;1.80;99.90;;;;;;5135953;27;20395;-55
2021/03/20 01:30:09;;;;;;;7.88;3.92;;;1.80;99.90;;;;;;5117116;27;20122;-54
2021/03/20 01:32:34;;;;;;;7.13;4.68;;;1.70;99.90;;;;;;5135803;27;20046;-55
2021/03/20 01:35:00;;;;;;;6.57;4.63;;;1.70;99.90;;;;;;5135580;27;20444;-54
2021/03/20 01:37:26;;;;;;;7.55;4.45;;;1.60;99.90;;;;;;5135530;27;20054;-54
2021/03/20 01:39:52;;;;;;;7.10;4.75;;;1.60;99.90;;;;;;5135905;27;20477;-55
2021/03/20 01:42:18;;;;;;;7.80;4.55;;;1.60;99.90;;;;;;5135617;27;20035;-54
2021/03/20 01:45:04;;;;;;;8.30;4.65;;;1.60;99.90;;;;;;5135597;27;20529;-54
2021/03/20 01:47:29;;;;;;;9.10;5.55;;;1.60;99.90;;;;;;5135156;27;20384;-53
2021/03/20 01:49:58;;;;;;;8.70;6.32;;;1.60;99.90;;;;;;5116159;27;20031;-55
2021/03/20 01:52:32;;;;;;;8.27;5.83;;;1.80;99.90;;;;;;5135122;27;20485;-54
2021/03/20 01:55:15;;;;;;;6.68;4.85;;;1.50;99.90;;;;;;5135320;27;20122;-53
2021/03/20 01:57:51;;;;;;;6.03;4.55;;;1.50;99.90;;;;;;5135126;27;20054;-54
2021/03/20 02:00:35;;;;;;;8.48;4.85;;;1.60;99.90;;;;;;5135046;27;20438;-55
2021/03/20 02:03:09;;;;;;;5.80;4.40;;;1.60;99.90;;;;;;5134968;27;20051;-53
2021/03/20 02:05:35;;;;;;;10.55;4.55;;;1.70;99.90;;;;;;5135068;27;20043;-55
2021/03/20 02:08:04;;;;;;;8.93;5.15;;;1.60;99.90;;;;;;5135021;27;20035;-55
2021/03/20 02:10:32;;;;;;;6.35;4.38;;;1.50;99.90;;;;;;5135044;27;20399;-54
2021/03/20 02:13:06;;;;;;;8.37;4.67;;;1.70;99.90;;;;;;5135093;27;20455;-55
2021/03/20 02:15:40;;;;;;;8.80;4.40;;;1.50;99.90;;;;;;5135059;27;20084;-54
2021/03/20 02:18:19;;;;;;;8.05;4.88;;;1.50;99.90;;;;;;5134801;27;20043;-55
2021/03/20 02:21:08;;;;;;;6.20;4.53;;;1.40;99.90;;;;;;5134700;27;20051;-54
2021/03/20 02:24:07;;;;;;;8.85;4.47;;;1.50;99.90;;;;;;5134741;27;20077;-54
2021/03/20 02:27:11;;;;;;;8.18;5.40;;;1.50;99.90;;;;;;5134623;27;20051;-56
2021/03/20 02:30:02;;;;;;;5.68;4.25;;;1.20;99.90;;;;;;5134384;27;20091;-55
2021/03/20 02:32:42;;;;;;;7.22;4.50;;;1.20;99.90;;;;;;5134709;27;20047;-55
2021/03/20 02:35:15;;;;;;;6.43;4.57;;;1.20;99.90;;;;;;5134467;27;20045;-54
2021/03/20 02:37:58;;;;;;;8.93;5.20;;;1.10;99.90;;;;;;5134332;27;20039;-54
2021/03/20 02:40:30;;;;;;;7.43;5.07;;;1.20;99.90;;;;;;5134254;27;20043;-55
2021/03/20 02:43:15;;;;;;;8.13;5.22;;;1.00;99.90;;;;;;5134213;27;20472;-53
2021/03/20 02:45:50;;;;;;;7.38;4.55;;;1.00;99.90;;;;;;5134187;27;20035;-55
2021/03/20 02:48:31;;;;;;;7.35;4.90;;;1.00;99.90;;;;;;5134149;27;20039;-55
2021/03/20 02:51:22;;;;;;;8.25;5.47;;;0.90;99.90;;;;;;5134125;27;20235;-55
2021/03/20 02:54:04;;;;;;;9.27;5.20;;;0.80;99.90;;;;;;5134444;27;20039;-55
2021/03/20 02:56:59;;;;;;;9.73;5.18;;;0.60;99.90;;;;;;5134001;27;20035;-55
2021/03/20 02:59:39;;;;;;;8.85;5.43;;;0.80;99.90;;;;;;5122739;27;20035;-55
2021/03/20 03:02:10;;;;;;;9.57;5.20;;;0.80;99.90;;;;;;5114582;27;20035;-55
2021/03/20 03:04:50;;;;;;;9.82;5.10;;;0.90;99.90;;;;;;5133685;27;20171;-55
2021/03/20 03:07:35;;;;;;;8.00;5.07;;;0.90;99.90;;;;;;5133720;27;20563;-55
2021/03/20 03:10:22;;;;;;;9.30;5.78;;;0.80;99.90;;;;;;5134387;27;20138;-55
2021/03/20 03:13:19;;;;;;;9.32;5.65;;;0.90;99.90;;;;;;5133774;27;20484;-54
2021/03/20 03:15:50;;;;;;;7.25;5.60;;;0.90;99.90;;;;;;5133701;27;20035;-55
2021/03/20 03:18:33;;;;;;;10.05;6.00;;;0.90;99.90;;;;;;5133577;27;20110;-55
2021/03/20 03:21:03;;;;;;;9.52;5.70;;;0.80;99.90;;;;;;5133476;27;20045;-54
2021/03/20 03:23:36;;;;;;;8.45;6.13;;;0.80;99.90;;;;;;5133564;27;20396;-55
2021/03/20 03:26:08;;;;;;;8.82;6.25;;;0.60;99.90;;;;;;5133413;27;20027;-55
2021/03/20 03:28:37;;;;;;;9.00;5.85;;;0.70;99.90;;;;;;5133598;27;20053;-55
2021/03/20 03:31:13;;;;;;;9.90;6.25;;;0.50;99.90;;;;;;5114543;27;20067;-55
2021/03/20 03:34:03;;;;;;;7.45;5.20;;;0.60;99.90;;;;;;5133421;27;20042;-55
2021/03/20 03:36:43;;;;;;;9.02;6.10;;;0.60;99.90;;;;;;5133440;27;20126;-55
2021/03/20 03:39:24;;;;;;;12.27;5.72;;;0.50;99.90;;;;;;5133388;27;20043;-55
2021/03/20 03:41:50;;;;;;;12.82;5.53;;;0.50;99.90;;;;;;5133227;27;20039;-54
2021/03/20 03:44:16;;;;;;;9.68;5.97;;;0.50;99.90;;;;;;5133227;27;20043;-54
2021/03/20 03:46:44;;;;;;;9.10;5.97;;;0.60;99.90;;;;;;5133109;27;20066;-54
2021/03/20 03:49:12;;;;;;;7.55;5.03;;;0.70;99.90;;;;;;5133312;27;20043;-55
2021/03/20 03:51:38;;;;;;;9.57;5.93;;;0.80;99.90;;;;;;5133358;27;20047;-54
2021/03/20 03:54:04;;;;;;;9.75;5.40;;;0.90;99.90;;;;;;5133006;27;20103;-54
2021/03/20 03:56:53;;;;;;;8.07;5.70;;;1.00;99.90;;;;;;5133006;27;20118;-55
2021/03/20 03:59:47;;;;;;;13.20;6.13;;;1.00;99.90;;;;;;5132401;27;20067;-55
2021/03/20 04:02:30;;;;;;;8.10;5.95;;;1.00;99.90;;;;;;5132917;27;20035;-55
2021/03/20 04:05:11;;;;;;;7.78;5.72;;;1.10;99.90;;;;;;5132933;27;20064;-55
2021/03/20 04:07:52;;;;;;;8.88;5.63;;;1.20;99.90;;;;;;5132844;27;20047;-54
2021/03/20 04:10:29;;;;;;;9.15;6.15;;;1.30;99.90;;;;;;5132852;28;20051;-55
2021/03/20 04:13:43;;;;;;;7.65;5.78;;;1.30;99.90;;;;;;5132321;27;20046;-55
2021/03/20 04:16:13;;;;;;;7.97;5.70;;;1.30;99.90;;;;;;5029773;28;20045;-54
2021/03/20 04:18:53;;;;;;;11.57;6.47;;;1.30;99.90;;;;;;5029588;28;20045;-55
2021/03/20 04:21:42;;;;;;;8.43;5.38;;;1.30;99.90;;;;;;5029376;28;20046;-55
2021/03/20 04:24:33;;;;;;;7.93;5.63;;;1.40;99.90;;;;;;5029523;28;20057;-55
2021/03/20 04:27:09;;;;;;;8.60;5.65;;;1.40;99.90;;;;;;5029371;28;20045;-54
2021/03/20 04:29:41;;;;;;;8.18;5.60;;;1.40;99.90;;;;;;5029664;28;20494;-55
2021/03/20 04:32:15;;;;;;;7.63;5.47;;;1.30;99.90;;;;;;5029609;28;20053;-53
2021/03/20 04:34:43;;;;;;;9.65;5.90;;;1.30;99.90;;;;;;5029552;28;20049;-54
2021/03/20 04:37:16;;;;;;;8.68;5.68;;;1.30;99.90;;;;;;5029618;28;20069;-53
2021/03/20 04:39:47;;;;;;;9.88;5.65;;;1.30;99.90;;;;;;5029487;28;20056;-55
2021/03/20 04:42:20;;;;;;;7.13;5.43;;;1.20;99.90;;;;;;5029371;28;20045;-55
2021/03/20 04:44:45;;;;;;;9.77;6.30;;;1.20;99.90;;;;;;5029339;28;20046;-54
2021/03/20 04:47:18;;;;;;;9.20;6.07;;;1.20;99.90;;;;;;5029222;28;20104;-55
2021/03/20 04:49:51;;;;;;;7.55;5.65;;;1.10;99.90;;;;;;5029301;28;20041;-55
2021/03/20 04:52:30;;;;;;;7.97;5.43;;;1.20;99.90;;;;;;5083855;28;20051;-54
2021/03/20 04:55:02;;;;;;;7.80;5.35;;;1.20;99.90;;;;;;5132430;28;20175;-55
2021/03/20 04:57:39;;;;;;;8.48;5.85;;;1.10;99.90;;;;;;5132507;28;20340;-54
2021/03/20 05:00:22;;;;;;;7.85;5.72;;;1.00;99.90;;;;;;5132366;28;20032;-54
2021/03/20 05:02:54;;;;;;;8.95;5.75;;;1.00;99.90;;;;;;5132200;27;20489;-54
2021/03/20 05:05:56;;;;;;;8.93;5.55;;;1.00;99.90;;;;;;5132309;28;20047;-55
2021/03/20 05:08:41;;;;;;;9.70;5.82;;;1.00;99.90;;;;;;5132454;28;20073;-54
2021/03/20 05:11:13;;;;;;;7.90;5.80;;;1.10;99.90;;;;;;5132584;28;20391;-54
2021/03/20 05:14:10;;;;;;;7.45;5.35;;;1.10;99.90;;;;;;5132371;28;20043;-54
2021/03/20 05:16:49;;;;;;;8.45;5.30;;;1.10;99.90;;;;;;5132346;28;20043;-54
2021/03/20 05:19:16;;;;;;;9.02;5.85;;;1.10;99.90;;;;;;5132505;28;20039;-55
2021/03/20 05:21:44;;;;;;;8.68;6.13;;;1.10;99.90;;;;;;5132167;28;20393;-55
2021/03/20 05:24:19;;;;;;;7.55;5.60;;;1.20;99.90;;;;;;5132084;27;20039;-55
2021/03/20 05:26:46;;;;;;;9.55;5.63;;;1.20;99.90;;;;;;5135100;27;20065;-54
2021/03/20 05:29:11;;;;;;;11.48;5.88;;;1.30;99.90;;;;;;5135996;27;20039;-55
2021/03/20 05:31:39;;;;;;;10.60;6.95;;;1.30;99.90;;;;;;5135986;27;20050;-55
2021/03/20 05:34:14;;;;;;;8.60;5.63;;;1.30;99.90;;;;;;5135509;27;20046;-55
2021/03/20 05:36:40;;;;;;;8.30;5.50;;;1.30;99.90;;;;;;5135880;27;20147;-55
2021/03/20 05:39:06;;;;;;;9.02;5.82;;;1.30;99.90;;;;;;5135681;27;20047;-53
2021/03/20 05:41:52;;;;;;;8.82;6.15;;;1.30;99.90;;;;;;5135445;27;20086;-54
2021/03/20 05:44:18;;;;;;;8.52;5.28;;;1.40;99.90;;;;;;5135572;27;20047;-54
2021/03/20 05:47:06;;;;;;;12.13;6.00;;;1.40;99.90;;;;;;5135351;27;20039;-54
2021/03/20 05:49:47;;;;;;;10.30;6.25;;;1.40;99.90;;;;;;5117050;27;20027;-54
2021/03/20 05:53:03;;;;;;;10.63;5.57;;;1.40;99.90;;;;;;5135557;27;20047;-55
2021/03/20 05:55:53;;;;;;;7.53;5.43;;;1.40;99.90;;;;;;5031897;28;20068;-55
2021/03/20 05:58:49;;;;;;;8.20;5.50;;;1.30;99.90;;;;;;5031992;28;20480;-53
2021/03/20 06:01:24;;;;;;;6.88;5.55;;;1.40;99.90;;;;;;5031903;28;20378;-54
2021/03/20 06:03:58;;;;;;;7.85;6.00;;;1.30;99.90;;;;;;5042614;28;20063;-55
2021/03/20 06:06:29;;;;;;;10.48;5.85;;;1.40;99.90;;;;;;5051853;28;20089;-55
2021/03/20 06:09:19;;;;;;;8.45;6.03;;;1.40;99.90;;;;;;5051618;28;20047;-53
2021/03/20 06:11:56;;;;;;;9.45;6.20;;;1.50;99.90;;;;;;5051693;28;20088;-54
2021/03/20 06:14:47;;;;;;;8.43;5.50;;;1.40;99.90;;;;;;5051656;28;20534;-54
2021/03/20 06:17:19;;;;;;;8.10;6.10;;;1.50;99.90;;;;;;5051444;28;20048;-54
2021/03/20 06:20:13;;;;;;;7.88;5.95;;;1.60;99.90;;;;;;5051474;28;20068;-53
2021/03/20 06:23:06;;;;;;;8.25;5.22;;;1.40;99.90;;;;;;5051311;28;20049;-54
2021/03/20 06:25:35;;;;;;;7.15;5.65;;;1.40;99.90;;;;;;5051334;28;20073;-54
2021/03/20 06:28:01;;;;;;;9.10;5.97;;;1.50;99.90;;;;;;5051299;28;20491;-53
2021/03/20 06:30:32;;;;;;;7.03;5.30;;;1.60;99.90;;;;;;5081448;27;20287;-53
2021/03/20 06:33:14;;;;;;;7.80;6.05;;;1.50;99.90;;;;;;5134552;27;20048;-53
2021/03/20 06:35:53;;;;;;;;;;;1.60;99.90;;;;;;5134786;27;20074;-55
2021/03/20 06:38:28;;;;;;;9.43;5.53;;;1.50;99.90;;;;;;5134425;27;20275;-54
2021/03/20 06:41:18;;;;;;;9.60;5.53;;;1.60;99.90;;;;;;5134549;27;20067;-53
2021/03/20 06:43:52;;;;;;;8.95;5.68;;;1.60;99.90;;;;;;5134305;27;20039;-55
2021/03/20 06:46:22;;;;;;;9.48;5.90;;;1.70;99.90;;;;;;5134783;27;20146;-55
2021/03/20 06:48:48;;;;;;;7.47;5.68;;;1.70;99.90;;;;;;5134332;27;20048;-55
2021/03/20 06:51:14;;;;;;;7.25;6.00;;;1.70;99.90;;;;;;5134293;27;20039;-55
2021/03/20 06:53:55;;;;;;;7.57;5.82;;;1.90;99.90;;;;;;5134376;27;20412;-54
2021/03/20 06:56:22;;;;;;;11.32;5.68;;;1.80;99.90;;;;;;5134102;27;20067;-55
2021/03/20 06:58:48;;;;;;;8.80;5.68;;;1.80;99.90;;;;;;5134050;27;20035;-53
2021/03/20 07:02:04;;;;;;;7.38;5.85;;;2.00;99.90;;;;;;5133861;27;20034;-55
2021/03/20 07:04:47;;;;;;;10.75;5.85;;;2.00;99.90;;;;;;5066196;28;20121;-55
2021/03/20 07:07:25;;;;;;;10.95;6.38;;;2.00;99.90;;;;;;5070556;28;20036;-54
2021/03/20 07:09:53;;;;;;;14.68;8.80;;;2.10;99.90;;;;;;5053808;28;20095;-55
2021/03/20 07:12:24;;;;;;;17.75;12.02;;;2.20;99.90;;;;;;5070391;28;20522;-55
2021/03/20 07:14:56;;;;;;;12.57;8.95;;;2.20;99.90;;;;;;5070308;28;20131;-55
2021/03/20 07:17:22;;;;;;;12.73;7.80;;;2.30;99.90;;;;;;5070394;28;20574;-55
2021/03/20 07:19:52;;;;;;;9.15;6.88;;;2.30;99.90;;;;;;5070318;28;20056;-55
2021/03/20 07:22:44;;;;;;;9.20;6.82;;;2.40;99.90;;;;;;5070146;28;20127;-54
2021/03/20 07:25:32;;;;;;;11.20;7.50;;;2.40;99.90;;;;;;5070585;28;20116;-55
2021/03/20 07:28:12;;;;;;;10.95;7.78;;;2.40;99.90;;;;;;5068873;28;20054;-55
2021/03/20 07:30:47;;;;;;;10.82;7.82;;;2.70;99.90;;;;;;5069455;28;20090;-56
2021/03/20 07:33:25;;;;;;;12.48;9.98;;;2.80;99.90;;;;;;5069863;28;20048;-55
2021/03/20 07:35:51;;;;;;;8.70;7.70;;;2.80;99.90;;;;;;5067709;28;20047;-55
2021/03/20 07:38:28;;;;;;;10.20;6.70;;;2.90;99.90;;;;;;5069587;28;20139;-55
2021/03/20 07:41:06;;;;;;;11.30;7.90;;;3.10;99.90;;;;;;5131011;27;20047;-55
2021/03/20 07:43:32;;;;;;;9.65;6.80;;;3.40;99.90;;;;;;5126088;27;20039;-55
2021/03/20 07:46:16;;;;;;;9.70;6.93;;;3.90;99.90;;;;;;5126846;27;20040;-55
2021/03/20 07:48:44;;;;;;;8.32;6.22;;;4.60;99.90;;;;;;5111371;28;20042;-56
2021/03/20 07:51:15;;;;;;;8.57;5.78;;;5.00;99.90;;;;;;5112325;28;20043;-56
2021/03/20 07:53:45;;;;;;;8.98;6.20;;;5.20;99.90;;;;;;5112495;28;20530;-54
2021/03/20 07:56:31;;;;;;;7.10;5.70;;;5.50;99.90;;;;;;5112733;28;20035;-56
2021/03/20 07:59:18;;;;;;;7.95;5.88;;;5.70;99.80;;;;;;5112604;28;20050;-56
2021/03/20 08:01:49;;;;;;;7.35;5.43;;;6.30;98.70;;;;;;5112346;28;20446;-56
2021/03/20 08:04:15;;;;;;;6.75;4.97;;;6.20;98.10;;;;;;5129654;27;20078;-56
2021/03/20 08:06:46;;;;;;;5.85;4.57;;;6.30;97.00;;;;;;5153747;27;20035;-56
2021/03/20 08:09:18;;;;;;;8.05;4.97;;;6.50;96.90;;;;;;5153605;27;20557;-56
2021/03/20 08:11:45;;;;;;;6.90;4.95;;;6.70;96.70;;;;;;5153980;27;20110;-56
2021/03/20 08:14:16;;;;;;;7.70;5.10;;;7.10;96.40;;;;;;5153762;27;20455;-56
2021/03/20 08:16:42;;;;;;;7.80;6.00;;;7.30;96.30;;;;;;5153531;27;20138;-56
2021/03/20 08:19:13;;;;;;;6.07;5.18;;;7.30;95.70;;;;;;5153499;27;20046;-56
2021/03/20 08:22:06;;;;;;;8.80;5.38;;;7.00;95.10;;;;;;5153283;27;20096;-56
2021/03/20 08:24:53;;;;;;;8.25;5.05;;;6.80;97.00;;;;;;5153524;27;20433;-56
2021/03/20 08:27:40;;;;;;;7.65;4.88;;;6.70;96.10;;;;;;5153378;27;20070;-56
2021/03/20 08:31:01;;;;;;;5.97;4.85;;;6.50;97.20;;;;;;5153216;27;20049;-56
2021/03/20 08:33:58;;;;;;;6.77;4.97;;;6.40;97.70;;;;;;5049413;28;20053;-56
2021/03/20 08:37:00;;;;;;;7.45;4.82;;;6.30;97.70;;;;;;5049210;28;20168;-56
2021/03/20 08:39:49;;;;;;;8.00;4.60;;;6.10;97.20;;;;;;5049270;28;20079;-56
2021/03/20 08:42:53;;;;;;;8.80;5.13;;;6.10;98.10;;;;;;5049260;28;20049;-56
2021/03/20 08:45:40;;;;;;;8.95;4.78;;;6.10;97.90;;;;;;4990180;28;20050;-56
2021/03/20 08:48:26;;;;;;;7.57;4.95;;;6.10;98.70;;;;;;4990281;28;20571;-56
2021/03/20 08:51:14;;;;;;;7.03;4.60;;;6.20;98.60;;;;;;4989985;28;20046;-56
2021/03/20 08:54:00;;;;;;;6.55;5.10;;;6.10;98.10;;;;;;4989858;28;20129;-56
2021/03/20 08:56:58;;;;;;;5.93;4.55;;;6.10;99.10;;;;;;4989929;28;20508;-56
2021/03/20 08:59:36;;;;;;;7.13;4.47;;;6.00;98.60;;;;;;4990908;28;20068;-56
2021/03/20 09:02:23;;;;;;;7.97;4.75;;;6.10;98.60;;;;;;4993412;28;20095;-56
2021/03/20 09:05:08;;;;;;;7.20;4.57;;;6.10;99.50;;;;;;4993371;28;20054;-56
2021/03/20 09:07:51;;;;;;;9.32;5.00;;;6.10;99.00;;;;;;5046931;28;20404;-56
2021/03/20 09:10:25;;;;;;;8.05;5.18;;;6.20;98.40;;;;;;5092954;28;20048;-56
2021/03/20 09:13:01;;;;;;;6.45;5.20;;;6.40;98.90;;;;;;5092959;28;20048;-56
2021/03/20 09:15:30;;;;;;;9.80;5.05;;;6.30;99.30;;;;;;5092939;28;20055;-55
2021/03/20 09:18:00;;;;;;;8.85;5.35;;;6.30;98.90;;;;;;5092858;28;20417;-56
2021/03/20 09:20:51;;;;;;;6.90;5.03;;;6.40;99.10;;;;;;5092875;28;20035;-56
2021/03/20 09:23:37;;;;;;;;;;;6.50;99.60;;;;;;5155539;27;20420;-56
2021/03/20 09:26:06;;;;;;;7.47;5.40;;;6.70;99.60;;;;;;5156523;27;19961;-56
2021/03/20 09:28:50;;;;;;;8.20;4.43;;;6.70;99.30;;;;;;5156430;27;20050;-56
2021/03/20 09:31:28;;;;;;;7.40;5.03;;;6.90;99.50;;;;;;5156632;27;20042;-56
2021/03/20 09:33:57;;;;;;;9.48;5.53;;;6.70;98.70;;;;;;5156462;27;20039;-56
2021/03/20 09:36:26;;;;;;;7.63;5.28;;;6.80;99.10;;;;;;5156317;27;20118;-56
2021/03/20 09:38:54;;;;;;;7.43;5.38;;;6.90;99.70;;;;;;5156718;27;20570;-56
2021/03/20 09:41:19;;;;;;;10.80;5.70;;;7.00;99.10;;;;;;5156532;27;20538;-56
2021/03/20 09:44:01;;;;;;;7.15;5.70;;;7.10;98.80;;;;;;5156445;27;20352;-56
2021/03/20 09:46:32;;;;;;;10.50;5.53;;;7.20;98.60;;;;;;5156154;27;20109;-56
2021/03/20 09:48:58;;;;;;;6.97;5.30;;;7.30;99.60;;;;;;5156077;27;20042;-56
2021/03/20 09:51:53;;;;;;;5.57;4.97;;;7.50;98.80;;;;;;5156010;27;20084;-56
2021/03/20 09:54:28;;;;;;;7.93;5.43;;;7.30;98.10;;;;;;5156076;27;20120;-57
2021/03/20 09:57:25;;;;;;;6.95;5.05;;;7.30;98.70;;;;;;5155965;27;20466;-56
2021/03/20 09:59:51;;;;;;;7.60;5.65;;;7.40;98.70;;;;;;5156053;27;20555;-56
2021/03/20 10:02:20;;;;;;;10.20;6.15;;;7.20;99.90;;;;;;5156272;27;20433;-56
2021/03/20 10:04:55;;;;;;;7.50;5.40;;;7.40;99.80;;;;;;5155842;27;20047;-56
2021/03/20 10:07:24;;;;;;;8.82;5.85;;;7.30;99.30;;;;;;5155803;27;20039;-56
2021/03/20 10:10:11;;;;;;;9.93;6.47;;;7.20;99.90;;;;;;5155668;27;20081;-57
2021/03/20 10:12:39;;;;;;;8.30;5.63;;;7.00;99.50;;;;;;5155157;27;20054;-56
2021/03/20 10:15:14;;;;;;;13.20;6.82;;;7.10;99.90;;;;;;5155850;27;20050;-56
2021/03/20 10:18:02;;;;;;;7.50;5.95;;;7.20;99.90;;;;;;5155583;27;20459;-56
2021/03/20 10:20:42;;;;;;;10.00;5.80;;;7.30;99.90;;;;;;5155508;27;20046;-56
2021/03/20 10:23:11;;;;;;;6.40;5.50;;;7.40;99.90;;;;;;5155465;27;20047;-56
2021/03/20 10:25:47;;;;;;;10.55;6.07;;;7.40;99.90;;;;;;5155476;27;20049;-56
2021/03/20 10:28:15;;;;;;;8.05;5.75;;;7.50;99.50;;;;;;5155626;27;20042;-57
2021/03/20 10:30:53;;;;;;;12.68;6.10;;;7.50;99.70;;;;;;5155470;27;20066;-56
2021/03/20 10:33:31;;;;;;;7.38;6.22;;;7.40;99.60;;;;;;5155038;27;20498;-56
2021/03/20 10:36:30;;;;;;;8.73;5.90;;;7.50;99.60;;;;;;5155381;27;20057;-56
2021/03/20 10:38:55;;;;;;;10.32;5.88;;;7.30;99.10;;;;;;5051031;28;20449;-56
2021/03/20 10:41:32;;;;;;;8.85;5.78;;;7.50;99.90;;;;;;5050917;28;20139;-56
2021/03/20 10:44:13;;;;;;;8.65;5.65;;;7.50;99.60;;;;;;5051388;28;20385;-56
2021/03/20 10:46:40;;;;;;;8.18;5.78;;;7.50;99.50;;;;;;5050851;28;20044;-56
2021/03/20 10:49:15;;;;;;;10.55;6.10;;;7.40;99.50;;;;;;5051012;28;20100;-56
2021/03/20 10:51:43;;;;;;;8.20;5.70;;;7.50;99.90;;;;;;5050951;28;20055;-56
2021/03/20 10:54:23;;;;;;;8.40;6.20;;;7.50;99.90;;;;;;5050875;28;20041;-56
2021/03/20 10:56:52;;;;;;;8.85;6.25;;;7.50;99.90;;;;;;5050676;28;20181;-56
2021/03/20 10:59:26;;;;;;;9.27;5.72;;;7.60;99.90;;;;;;5050569;28;20129;-56
2021/03/20 11:01:52;;;;;;;11.68;6.13;;;7.60;99.90;;;;;;5050497;28;20045;-56
2021/03/20 11:04:47;;;;;;;8.88;6.10;;;7.60;99.60;;;;;;5050316;28;20056;-56
2021/03/20 11:07:16;;;;;;;10.23;6.15;;;7.70;99.90;;;;;;4991281;28;20046;-56
2021/03/20 11:09:43;;;;;;;;;;;7.70;99.90;;;;;;4991496;28;20054;-56
2021/03/20 11:12:23;;;;;;;7.00;5.20;;;7.80;99.90;;;;;;4991184;28;19941;-56
2021/03/20 11:14:57;;;;;;;5.15;4.00;;;7.70;99.00;;;;;;5023017;28;20051;-56
2021/03/20 11:17:26;;;;;;;6.28;5.10;;;7.80;99.30;;;;;;5090594;28;20059;-56
2021/03/20 11:20:20;;;;;;;10.00;4.85;;;7.80;99.10;;;;;;5090492;28;20040;-56
2021/03/20 11:22:46;;;;;;;9.23;5.10;;;7.90;99.20;;;;;;5085351;28;20037;-57
2021/03/20 11:25:29;;;;;;;8.32;5.00;;;7.80;98.20;;;;;;5064958;28;20510;-56
2021/03/20 11:28:02;;;;;;;7.03;4.78;;;7.90;98.90;;;;;;5069565;28;20055;-56
2021/03/20 11:30:50;;;;;;;9.20;6.00;;;7.90;99.20;;;;;;5067506;28;20043;-56
2021/03/20 11:33:19;;;;;;;7.50;4.50;;;8.00;98.90;;;;;;5068499;28;20072;-56
2021/03/20 11:35:46;;;;;;;;;;;8.00;99.00;;;;;;5067533;28;20129;-56
2021/03/20 11:38:15;;;;;;;10.18;4.70;;;7.80;98.00;;;;;;5069474;28;19924;-56
2021/03/20 11:40:54;;;;;;;9.90;4.63;;;7.90;98.30;;;;;;5069691;28;20098;-56
2021/03/20 11:43:27;;;;;;;7.00;4.90;;;7.90;98.30;;;;;;5086808;27;20111;-56
2021/03/20 11:46:07;;;;;;;10.20;4.50;;;7.90;98.80;;;;;;5152991;27;20039;-56
2021/03/20 11:49:07;;;;;;;11.65;4.50;;;7.80;99.20;;;;;;5152829;27;20037;-56
2021/03/20 11:51:42;;;;;;;10.73;5.35;;;7.90;99.90;;;;;;5068475;28;20044;-56
2021/03/20 11:54:22;;;;;;;12.07;5.30;;;7.80;99.20;;;;;;5052550;28;20549;-56
2021/03/20 11:57:10;;;;;;;7.93;4.65;;;7.80;99.90;;;;;;5069280;28;20040;-56
2021/03/20 11:59:45;;;;;;;10.13;5.13;;;7.80;99.80;;;;;;5069416;28;20433;-56
2021/03/20 12:02:23;;;;;;;6.00;4.00;;;7.70;99.80;;;;;;5069338;28;20040;-55
2021/03/20 12:05:05;;;;;;;6.47;3.65;;;7.80;99.50;;;;;;5069532;28;20078;-56
2021/03/20 12:07:32;;;;;;;7.30;4.03;;;7.70;99.90;;;;;;5068146;28;20053;-56
2021/03/20 12:10:16;;;;;;;6.97;3.80;;;7.70;99.90;;;;;;5068681;28;20139;-56
2021/03/20 12:12:43;;;;;;;7.13;3.60;;;7.80;99.90;;;;;;5068556;28;20076;-56
2021/03/20 12:15:19;;;;;;;12.25;4.00;;;7.80;99.90;;;;;;5069324;28;20064;-56
2021/03/20 12:17:48;;;;;;;4.57;2.90;;;7.80;99.90;;;;;;5069982;28;20347;-57
2021/03/20 12:20:26;;;;;;;5.90;3.70;;;7.80;99.90;;;;;;5070109;28;20082;-56
2021/03/20 12:22:54;;;;;;;7.18;3.50;;;7.70;99.90;;;;;;5086453;28;20048;-57
2021/03/20 12:25:22;;;;;;;15.32;3.58;;;7.70;99.90;;;;;;5069431;28;20041;-56
2021/03/20 12:27:50;;;;;;;10.00;4.00;;;7.80;99.90;;;;;;5086821;28;20138;-56
2021/03/20 12:30:31;;;;;;;4.13;3.28;;;7.80;99.90;;;;;;5132699;28;20502;-56
2021/03/20 12:33:18;;;;;;;7.07;3.70;;;7.80;99.90;;;;;;5132743;28;20085;-56
2021/03/20 12:35:49;;;;;;;5.97;3.47;;;7.90;99.90;;;;;;5155051;27;20122;-56
2021/03/20 12:38:17;;;;;;;10.73;3.72;;;7.80;99.90;;;;;;5155336;27;20487;-57
2021/03/20 12:40:50;;;;;;;7.47;3.58;;;7.70;99.90;;;;;;5155701;27;20126;-56
2021/03/20 12:43:32;;;;;;;4.30;3.08;;;7.70;99.90;;;;;;5154232;27;20107;-57
2021/03/20 12:46:01;;;;;;;7.20;3.90;;;7.60;99.90;;;;;;5157731;27;20034;-56
2021/03/20 12:48:34;;;;;;;8.55;4.28;;;7.50;99.90;;;;;;5157838;27;20073;-56
2021/03/20 12:51:04;;;;;;;7.53;4.20;;;7.60;99.90;;;;;;5138824;27;20839;-56
2021/03/20 12:53:31;;;;;;;8.30;4.70;;;7.50;99.90;;;;;;5152292;27;20038;-56
2021/03/20 12:55:56;;;;;;;7.72;4.55;;;7.40;99.90;;;;;;5157406;27;20423;-56
2021/03/20 12:58:23;;;;;;;11.00;4.88;;;7.40;99.90;;;;;;5156840;27;20603;-56
2021/03/20 13:00:48;;;;;;;7.38;4.97;;;7.30;99.90;;;;;;5137937;27;20043;-56
2021/03/20 13:03:14;;;;;;;10.70;5.55;;;7.30;99.90;;;;;;5156755;27;20107;-56
2021/03/20 13:05:42;;;;;;;11.18;5.80;;;7.20;99.90;;;;;;5145800;27;20051;-56
2021/03/20 13:08:09;;;;;;;7.95;4.80;;;7.20;99.90;;;;;;5136038;27;20476;-56
2021/03/20 13:10:34;;;;;;;6.28;4.60;;;7.30;99.90;;;;;;5136179;27;20046;-56
2021/03/20 13:13:00;;;;;;;6.93;4.70;;;7.20;99.90;;;;;;5136322;27;20043;-56
2021/03/20 13:15:26;;;;;;;8.13;4.85;;;7.10;99.90;;;;;;5136190;27;20039;-56
2021/03/20 13:17:52;;;;;;;6.07;4.82;;;7.20;99.90;;;;;;5136420;27;20047;-56
2021/03/20 13:20:21;;;;;;;7.25;4.68;;;7.00;99.90;;;;;;5136067;27;20536;-56
2021/03/20 13:22:47;;;;;;;9.75;4.95;;;7.00;99.90;;;;;;5136146;27;20054;-56
2021/03/20 13:25:36;;;;;;;8.10;4.93;;;7.00;99.90;;;;;;5136016;27;20035;-56
2021/03/20 13:28:08;;;;;;;9.10;5.35;;;7.10;99.90;;;;;;5135761;27;20039;-56
2021/03/20 13:30:40;;;;;;;10.07;4.75;;;7.00;99.90;;;;;;5136176;27;20039;-56
2021/03/20 13:33:07;;;;;;;8.02;5.07;;;7.00;99.90;;;;;;5135866;27;20050;-56
2021/03/20 13:35:36;;;;;;;10.00;4.93;;;6.90;99.90;;;;;;5135780;27;20043;-56
2021/03/20 13:38:02;;;;;;;7.72;5.20;;;6.90;99.90;;;;;;5135697;27;20054;-56
2021/03/20 13:40:29;;;;;;;6.75;4.97;;;6.90;99.90;;;;;;5134669;27;20046;-56